sensor_id;sensor_type;location;lat;lon;timestamp;pressure;altitude;pressure_sealevel;temperature;humidity
19596;BME280;9945;46.010;8.946;2023-03-23T00:01:22;97135.97;;;15.50;54.49
19596;BME280;9945;46.010;8.946;2023-03-23T00:03:53;97135.69;;;15.45;55.20
19596;BME280;9945;46.010;8.946;2023-03-23T00:06:24;97132.41;;;15.43;55.80
19596;BME280;9945;46.010;8.946;2023-03-23T00:08:53;97133.16;;;15.37;55.01
19596;BME280;9945;46.010;8.946;2023-03-23T00:11:27;97132.66;;;15.19;56.17
19596;BME280;9945;46.010;8.946;2023-03-23T00:13:56;97135.00;;;15.13;56.65
19596;BME280;9945;46.010;8.946;2023-03-23T00:16:27;97131.00;;;15.18;56.40
19596;BME280;9945;46.010;8.946;2023-03-23T00:18:59;97129.84;;;15.20;56.52
19596;BME280;9945;46.010;8.946;2023-03-23T00:21:29;97134.38;;;15.26;56.12
19596;BME280;9945;46.010;8.946;2023-03-23T00:24:02;97136.69;;;15.29;56.23
19596;BME280;9945;46.010;8.946;2023-03-23T00:26:30;97140.31;;;15.28;56.36
19596;BME280;9945;46.010;8.946;2023-03-23T00:28:59;97138.66;;;15.27;56.73
19596;BME280;9945;46.010;8.946;2023-03-23T00:31:27;97142.56;;;15.31;56.54
19596;BME280;9945;46.010;8.946;2023-03-23T00:33:57;97131.03;;;15.32;56.41
19596;BME280;9945;46.010;8.946;2023-03-23T00:36:26;97124.47;;;15.28;57.67
19596;BME280;9945;46.010;8.946;2023-03-23T00:38:53;97130.59;;;15.29;57.36
19596;BME280;9945;46.010;8.946;2023-03-23T00:41:23;97123.31;;;15.31;57.67
19596;BME280;9945;46.010;8.946;2023-03-23T00:43:54;97122.03;;;15.27;57.19
19596;BME280;9945;46.010;8.946;2023-03-23T00:46:22;97122.66;;;15.29;57.31
19596;BME280;9945;46.010;8.946;2023-03-23T00:48:50;97119.38;;;15.27;56.86
19596;BME280;9945;46.010;8.946;2023-03-23T00:51:17;97120.03;;;15.29;57.82
19596;BME280;9945;46.010;8.946;2023-03-23T00:53:45;97121.84;;;15.28;57.39
19596;BME280;9945;46.010;8.946;2023-03-23T00:56:12;97118.22;;;15.29;57.19
19596;BME280;9945;46.010;8.946;2023-03-23T00:58:39;97122.50;;;15.30;57.21
19596;BME280;9945;46.010;8.946;2023-03-23T01:01:08;97119.03;;;15.30;57.02
19596;BME280;9945;46.010;8.946;2023-03-23T01:03:35;97116.41;;;15.30;57.39
19596;BME280;9945;46.010;8.946;2023-03-23T01:06:07;97115.56;;;15.29;58.13
19596;BME280;9945;46.010;8.946;2023-03-23T01:08:39;97111.94;;;15.30;57.61
19596;BME280;9945;46.010;8.946;2023-03-23T01:11:12;97112.75;;;15.31;57.26
19596;BME280;9945;46.010;8.946;2023-03-23T01:13:40;97103.38;;;15.28;57.56
19596;BME280;9945;46.010;8.946;2023-03-23T01:16:09;97106.84;;;15.29;57.86
19596;BME280;9945;46.010;8.946;2023-03-23T01:18:37;97103.28;;;15.22;58.27
19596;BME280;9945;46.010;8.946;2023-03-23T01:21:05;97097.06;;;15.14;58.56
19596;BME280;9945;46.010;8.946;2023-03-23T01:23:32;97089.06;;;15.08;58.56
19596;BME280;9945;46.010;8.946;2023-03-23T01:26:03;97097.78;;;15.08;59.36
19596;BME280;9945;46.010;8.946;2023-03-23T01:28:30;97088.63;;;15.04;59.63
19596;BME280;9945;46.010;8.946;2023-03-23T01:31:00;97078.69;;;15.06;59.95
19596;BME280;9945;46.010;8.946;2023-03-23T01:33:28;97085.59;;;15.07;59.57
19596;BME280;9945;46.010;8.946;2023-03-23T01:35:56;97071.41;;;15.08;59.37
19596;BME280;9945;46.010;8.946;2023-03-23T01:38:23;97082.78;;;15.09;59.72
19596;BME280;9945;46.010;8.946;2023-03-23T01:40:50;97076.88;;;15.07;59.78
19596;BME280;9945;46.010;8.946;2023-03-23T01:43:17;97076.06;;;15.06;60.11
19596;BME280;9945;46.010;8.946;2023-03-23T01:45:44;97073.63;;;15.05;59.94
19596;BME280;9945;46.010;8.946;2023-03-23T01:48:15;97079.97;;;14.96;60.39
19596;BME280;9945;46.010;8.946;2023-03-23T01:50:52;97077.59;;;15.01;60.32
19596;BME280;9945;46.010;8.946;2023-03-23T01:53:22;97078.69;;;15.06;60.08
19596;BME280;9945;46.010;8.946;2023-03-23T01:55:53;97076.06;;;15.06;59.96
19596;BME280;9945;46.010;8.946;2023-03-23T01:58:23;97067.63;;;15.11;60.22
19596;BME280;9945;46.010;8.946;2023-03-23T02:00:53;97066.44;;;15.13;59.82
19596;BME280;9945;46.010;8.946;2023-03-23T02:03:21;97066.06;;;15.17;59.68
19596;BME280;9945;46.010;8.946;2023-03-23T02:05:51;97066.06;;;15.17;59.76
19596;BME280;9945;46.010;8.946;2023-03-23T02:08:18;97053.06;;;15.15;59.75
19596;BME280;9945;46.010;8.946;2023-03-23T02:10:46;97055.06;;;15.13;60.06
19596;BME280;9945;46.010;8.946;2023-03-23T02:13:13;97052.97;;;15.08;60.60
19596;BME280;9945;46.010;8.946;2023-03-23T02:15:48;97050.97;;;15.10;60.24
19596;BME280;9945;46.010;8.946;2023-03-23T02:18:27;97049.41;;;15.16;60.24
19596;BME280;9945;46.010;8.946;2023-03-23T02:21:20;97062.00;;;15.14;60.13
19596;BME280;9945;46.010;8.946;2023-03-23T02:26:51;97051.78;;;15.11;58.94
19596;BME280;9945;46.010;8.946;2023-03-23T02:29:34;97054.44;;;15.11;58.52
19596;BME280;9945;46.010;8.946;2023-03-23T02:32:11;97054.78;;;15.08;58.33
19596;BME280;9945;46.010;8.946;2023-03-23T02:34:44;97057.59;;;15.06;58.09
19596;BME280;9945;46.010;8.946;2023-03-23T02:37:16;97056.16;;;15.04;58.36
19596;BME280;9945;46.010;8.946;2023-03-23T02:39:49;97052.41;;;14.98;59.35
19596;BME280;9945;46.010;8.946;2023-03-23T02:42:21;97058.56;;;14.91;60.38
19596;BME280;9945;46.010;8.946;2023-03-23T02:44:50;97052.19;;;14.85;61.06
19596;BME280;9945;46.010;8.946;2023-03-23T02:47:22;97053.19;;;14.84;61.17
19596;BME280;9945;46.010;8.946;2023-03-23T02:49:53;97052.78;;;14.72;62.24
19596;BME280;9945;46.010;8.946;2023-03-23T02:52:23;97052.09;;;14.79;62.05
19596;BME280;9945;46.010;8.946;2023-03-23T02:54:51;97056.56;;;14.78;61.50
19596;BME280;9945;46.010;8.946;2023-03-23T02:57:20;97052.72;;;14.81;61.87
19596;BME280;9945;46.010;8.946;2023-03-23T02:59:47;97048.66;;;14.78;61.51
19596;BME280;9945;46.010;8.946;2023-03-23T03:02:16;97053.44;;;14.74;61.11
19596;BME280;9945;46.010;8.946;2023-03-23T03:04:47;97058.06;;;14.72;61.54
19596;BME280;9945;46.010;8.946;2023-03-23T03:07:36;97053.63;;;14.73;61.57
19596;BME280;9945;46.010;8.946;2023-03-23T03:10:19;97062.50;;;14.72;61.29
19596;BME280;9945;46.010;8.946;2023-03-23T03:12:55;97058.53;;;14.76;60.90
19596;BME280;9945;46.010;8.946;2023-03-23T03:15:27;97062.81;;;14.77;61.12
19596;BME280;9945;46.010;8.946;2023-03-23T03:18:01;97059.38;;;14.76;61.41
19596;BME280;9945;46.010;8.946;2023-03-23T03:20:31;97060.19;;;14.77;62.39
19596;BME280;9945;46.010;8.946;2023-03-23T03:23:00;97065.28;;;14.79;62.49
19596;BME280;9945;46.010;8.946;2023-03-23T03:25:28;97060.00;;;14.79;62.93
19596;BME280;9945;46.010;8.946;2023-03-23T03:27:56;97061.66;;;14.80;62.79
19596;BME280;9945;46.010;8.946;2023-03-23T03:30:26;97059.00;;;14.80;63.03
19596;BME280;9945;46.010;8.946;2023-03-23T03:32:56;97059.63;;;14.82;62.74
19596;BME280;9945;46.010;8.946;2023-03-23T03:35:25;97063.91;;;14.83;62.80
19596;BME280;9945;46.010;8.946;2023-03-23T03:37:53;97069.72;;;14.78;62.69
19596;BME280;9945;46.010;8.946;2023-03-23T03:40:22;97071.66;;;14.84;62.16
19596;BME280;9945;46.010;8.946;2023-03-23T03:42:49;97078.09;;;14.82;62.35
19596;BME280;9945;46.010;8.946;2023-03-23T03:45:18;97081.19;;;14.85;61.85
19596;BME280;9945;46.010;8.946;2023-03-23T03:47:46;97079.72;;;14.83;61.71
19596;BME280;9945;46.010;8.946;2023-03-23T03:50:13;97073.63;;;14.82;62.02
19596;BME280;9945;46.010;8.946;2023-03-23T03:52:42;97074.28;;;14.84;62.83
19596;BME280;9945;46.010;8.946;2023-03-23T03:55:10;97070.56;;;14.79;62.49
19596;BME280;9945;46.010;8.946;2023-03-23T03:57:39;97068.03;;;14.85;61.59
19596;BME280;9945;46.010;8.946;2023-03-23T04:00:08;97075.38;;;14.90;61.86
19596;BME280;9945;46.010;8.946;2023-03-23T04:02:41;97076.84;;;14.92;62.51
19596;BME280;9945;46.010;8.946;2023-03-23T04:05:09;97074.69;;;14.96;62.09
19596;BME280;9945;46.010;8.946;2023-03-23T04:07:37;97074.84;;;14.94;62.40
19596;BME280;9945;46.010;8.946;2023-03-23T04:10:06;97080.47;;;14.91;62.09
19596;BME280;9945;46.010;8.946;2023-03-23T04:12:33;97072.88;;;14.96;62.02
19596;BME280;9945;46.010;8.946;2023-03-23T04:15:03;97079.41;;;15.00;61.62
19596;BME280;9945;46.010;8.946;2023-03-23T04:17:30;97075.94;;;15.00;61.64
19596;BME280;9945;46.010;8.946;2023-03-23T04:19:57;97077.59;;;15.01;61.34
19596;BME280;9945;46.010;8.946;2023-03-23T04:22:25;97079.41;;;15.00;62.26
19596;BME280;9945;46.010;8.946;2023-03-23T04:24:57;97081.06;;;15.01;61.64
19596;BME280;9945;46.010;8.946;2023-03-23T04:27:26;97079.88;;;15.04;61.62
19596;BME280;9945;46.010;8.946;2023-03-23T04:29:55;97085.34;;;15.02;61.74
19596;BME280;9945;46.010;8.946;2023-03-23T04:32:25;97085.97;;;15.04;61.35
19596;BME280;9945;46.010;8.946;2023-03-23T04:34:54;97087.31;;;15.00;60.96
19596;BME280;9945;46.010;8.946;2023-03-23T04:37:21;97082.03;;;15.00;61.17
19596;BME280;9945;46.010;8.946;2023-03-23T04:39:51;97087.66;;;14.97;61.13
19596;BME280;9945;46.010;8.946;2023-03-23T04:42:27;97085.84;;;14.98;60.58
19596;BME280;9945;46.010;8.946;2023-03-23T04:44:54;97080.97;;;14.95;60.99
19596;BME280;9945;46.010;8.946;2023-03-23T04:47:21;97085.91;;;14.90;61.06
19596;BME280;9945;46.010;8.946;2023-03-23T04:49:49;97083.00;;;14.85;60.80
19596;BME280;9945;46.010;8.946;2023-03-23T04:52:17;97088.00;;;14.80;61.08
19596;BME280;9945;46.010;8.946;2023-03-23T04:54:46;97082.19;;;14.84;60.65
19596;BME280;9945;46.010;8.946;2023-03-23T04:57:13;97087.47;;;14.84;60.50
19596;BME280;9945;46.010;8.946;2023-03-23T04:59:41;97085.47;;;14.86;60.30
19596;BME280;9945;46.010;8.946;2023-03-23T05:02:08;97094.72;;;14.82;60.54
19596;BME280;9945;46.010;8.946;2023-03-23T05:04:36;97088.47;;;14.83;60.23
19596;BME280;9945;46.010;8.946;2023-03-23T05:07:04;97078.09;;;14.82;61.08
19596;BME280;9945;46.010;8.946;2023-03-23T05:09:32;97082.28;;;14.91;60.07
19596;BME280;9945;46.010;8.946;2023-03-23T05:12:03;97085.59;;;14.93;61.13
19596;BME280;9945;46.010;8.946;2023-03-23T05:14:31;97089.50;;;14.97;61.87
19596;BME280;9945;46.010;8.946;2023-03-23T05:16:57;97084.75;;;14.92;61.71
19596;BME280;9945;46.010;8.946;2023-03-23T05:19:26;97078.66;;;14.92;62.14
19596;BME280;9945;46.010;8.946;2023-03-23T05:21:53;97070.75;;;14.92;62.00
19596;BME280;9945;46.010;8.946;2023-03-23T05:24:21;97079.13;;;14.95;62.88
19596;BME280;9945;46.010;8.946;2023-03-23T05:26:49;97070.22;;;14.96;63.00
19596;BME280;9945;46.010;8.946;2023-03-23T05:29:17;97071.50;;;15.00;62.75
19596;BME280;9945;46.010;8.946;2023-03-23T05:31:44;97065.22;;;15.01;63.03
19596;BME280;9945;46.010;8.946;2023-03-23T05:34:11;97066.22;;;15.00;62.97
19596;BME280;9945;46.010;8.946;2023-03-23T05:36:38;97061.59;;;15.02;62.42
19596;BME280;9945;46.010;8.946;2023-03-23T05:39:05;97058.16;;;15.02;62.94
19596;BME280;9945;46.010;8.946;2023-03-23T05:41:33;97055.84;;;14.99;63.55
19596;BME280;9945;46.010;8.946;2023-03-23T05:44:00;97056.50;;;15.01;63.26
19596;BME280;9945;46.010;8.946;2023-03-23T05:46:27;97057.78;;;15.05;63.25
19596;BME280;9945;46.010;8.946;2023-03-23T05:48:54;97063.50;;;15.08;62.47
19596;BME280;9945;46.010;8.946;2023-03-23T05:51:21;97059.88;;;15.09;63.44
19596;BME280;9945;46.010;8.946;2023-03-23T05:53:49;97062.16;;;15.12;63.51
19596;BME280;9945;46.010;8.946;2023-03-23T05:56:16;97066.78;;;15.10;63.36
19596;BME280;9945;46.010;8.946;2023-03-23T05:58:44;97062.25;;;15.04;63.84
19596;BME280;9945;46.010;8.946;2023-03-23T06:01:11;97056.97;;;15.04;63.54
19596;BME280;9945;46.010;8.946;2023-03-23T06:03:39;97055.78;;;15.07;64.15
19596;BME280;9945;46.010;8.946;2023-03-23T06:06:06;97065.06;;;15.03;64.11
19596;BME280;9945;46.010;8.946;2023-03-23T06:08:35;97065.44;;;14.77;64.95
19596;BME280;9945;46.010;8.946;2023-03-23T06:11:03;97077.91;;;14.83;65.79
19596;BME280;9945;46.010;8.946;2023-03-23T06:13:31;97075.22;;;14.91;65.12
19596;BME280;9945;46.010;8.946;2023-03-23T06:15:59;97073.88;;;14.95;66.03
19596;BME280;9945;46.010;8.946;2023-03-23T06:18:26;97065.56;;;14.98;65.76
19596;BME280;9945;46.010;8.946;2023-03-23T06:20:54;97069.34;;;15.04;65.75
19596;BME280;9945;46.010;8.946;2023-03-23T06:23:21;97067.78;;;15.09;64.94
19596;BME280;9945;46.010;8.946;2023-03-23T06:25:48;97067.97;;;15.08;64.03
19596;BME280;9945;46.010;8.946;2023-03-23T06:28:15;97073.72;;;15.11;63.66
19596;BME280;9945;46.010;8.946;2023-03-23T06:30:42;97080.97;;;15.09;62.42
19596;BME280;9945;46.010;8.946;2023-03-23T06:33:10;97082.78;;;14.94;62.56
19596;BME280;9945;46.010;8.946;2023-03-23T06:35:37;97086.88;;;14.97;62.72
19596;BME280;9945;46.010;8.946;2023-03-23T06:38:04;97091.44;;;15.03;62.91
19596;BME280;9945;46.010;8.946;2023-03-23T06:40:31;97099.69;;;15.00;62.69
19596;BME280;9945;46.010;8.946;2023-03-23T06:42:58;97104.69;;;14.95;62.46
19596;BME280;9945;46.010;8.946;2023-03-23T06:45:25;97121.66;;;14.92;62.65
19596;BME280;9945;46.010;8.946;2023-03-23T06:47:52;97114.09;;;14.89;61.85
19596;BME280;9945;46.010;8.946;2023-03-23T06:50:20;97111.00;;;14.86;62.42
19596;BME280;9945;46.010;8.946;2023-03-23T06:52:49;97118.03;;;14.93;61.72
19596;BME280;9945;46.010;8.946;2023-03-23T06:55:17;97111.34;;;15.05;62.25
19596;BME280;9945;46.010;8.946;2023-03-23T06:57:44;97106.84;;;15.29;61.72
19596;BME280;9945;46.010;8.946;2023-03-23T07:00:12;97108.84;;;15.41;61.82
19596;BME280;9945;46.010;8.946;2023-03-23T07:02:39;97112.88;;;15.52;61.81
19596;BME280;9945;46.010;8.946;2023-03-23T07:05:06;97114.00;;;15.72;61.94
19596;BME280;9945;46.010;8.946;2023-03-23T07:07:36;97112.50;;;15.99;60.80
19596;BME280;9945;46.010;8.946;2023-03-23T07:10:04;97114.03;;;16.08;60.20
19596;BME280;9945;46.010;8.946;2023-03-23T07:12:31;97112.38;;;16.22;59.19
19596;BME280;9945;46.010;8.946;2023-03-23T07:14:58;97121.13;;;16.22;59.08
19596;BME280;9945;46.010;8.946;2023-03-23T07:17:25;97126.63;;;16.42;58.93
19596;BME280;9945;46.010;8.946;2023-03-23T07:19:52;97122.63;;;16.46;57.30
19596;BME280;9945;46.010;8.946;2023-03-23T07:22:19;97127.44;;;16.43;57.89
19596;BME280;9945;46.010;8.946;2023-03-23T07:24:48;97131.72;;;16.44;58.19
19596;BME280;9945;46.010;8.946;2023-03-23T07:27:15;97132.06;;;16.55;57.69
19596;BME280;9945;46.010;8.946;2023-03-23T07:29:42;97133.66;;;16.50;56.26
19596;BME280;9945;46.010;8.946;2023-03-23T07:32:11;97138.28;;;16.62;57.13
19596;BME280;9945;46.010;8.946;2023-03-23T07:34:38;97142.78;;;16.69;56.27
19596;BME280;9945;46.010;8.946;2023-03-23T07:37:05;97143.63;;;16.69;55.77
19596;BME280;9945;46.010;8.946;2023-03-23T07:39:32;97140.16;;;16.69;56.77
19596;BME280;9945;46.010;8.946;2023-03-23T07:42:00;97136.69;;;16.68;55.88
19596;BME280;9945;46.010;8.946;2023-03-23T07:44:27;97141.72;;;16.63;56.62
19596;BME280;9945;46.010;8.946;2023-03-23T07:46:54;97143.75;;;16.46;58.48
19596;BME280;9945;46.010;8.946;2023-03-23T07:49:21;97145.59;;;16.46;58.20
19596;BME280;9945;46.010;8.946;2023-03-23T07:51:48;97142.22;;;16.37;58.51
19596;BME280;9945;46.010;8.946;2023-03-23T07:54:15;97149.91;;;16.17;58.42
19596;BME280;9945;46.010;8.946;2023-03-23T07:56:42;97154.09;;;16.26;58.05
19596;BME280;9945;46.010;8.946;2023-03-23T07:59:12;97155.91;;;16.41;58.81
19596;BME280;9945;46.010;8.946;2023-03-23T08:01:39;97153.31;;;16.62;58.67
19596;BME280;9945;46.010;8.946;2023-03-23T08:04:06;97151.94;;;16.87;57.77
19596;BME280;9945;46.010;8.946;2023-03-23T08:06:34;97158.31;;;17.14;57.06
19596;BME280;9945;46.010;8.946;2023-03-23T08:09:02;97158.66;;;17.32;58.39
19596;BME280;9945;46.010;8.946;2023-03-23T08:11:32;97155.47;;;17.65;57.00
19596;BME280;9945;46.010;8.946;2023-03-23T08:13:59;97152.44;;;17.68;53.49
19596;BME280;9945;46.010;8.946;2023-03-23T08:16:27;97156.47;;;17.98;53.55
19596;BME280;9945;46.010;8.946;2023-03-23T08:18:53;97161.28;;;18.23;51.93
19596;BME280;9945;46.010;8.946;2023-03-23T08:21:20;97157.91;;;18.48;50.13
19596;BME280;9945;46.010;8.946;2023-03-23T08:23:47;97165.72;;;18.63;49.29
19596;BME280;9945;46.010;8.946;2023-03-23T08:26:14;97161.09;;;18.78;48.42
19596;BME280;9945;46.010;8.946;2023-03-23T08:28:43;97166.00;;;18.81;47.79
19596;BME280;9945;46.010;8.946;2023-03-23T08:31:11;97172.53;;;18.79;48.28
19596;BME280;9945;46.010;8.946;2023-03-23T08:33:40;97176.22;;;18.84;48.92
19596;BME280;9945;46.010;8.946;2023-03-23T08:36:08;97171.75;;;18.98;48.48
19596;BME280;9945;46.010;8.946;2023-03-23T08:38:35;97183.16;;;18.99;48.49
19596;BME280;9945;46.010;8.946;2023-03-23T08:41:05;97171.56;;;19.13;48.55
19596;BME280;9945;46.010;8.946;2023-03-23T08:43:33;97181.19;;;19.27;47.31
19596;BME280;9945;46.010;8.946;2023-03-23T08:46:00;97176.88;;;19.33;46.93
19596;BME280;9945;46.010;8.946;2023-03-23T08:48:32;97171.41;;;19.60;46.84
19596;BME280;9945;46.010;8.946;2023-03-23T08:51:02;97173.03;;;19.55;46.07
19596;BME280;9945;46.010;8.946;2023-03-23T08:53:29;97169.13;;;19.44;45.25
19596;BME280;9945;46.010;8.946;2023-03-23T08:56:02;97175.47;;;19.70;45.66
19596;BME280;9945;46.010;8.946;2023-03-23T08:58:29;97171.78;;;19.90;44.46
19596;BME280;9945;46.010;8.946;2023-03-23T09:00:56;97172.78;;;19.83;44.33
19596;BME280;9945;46.010;8.946;2023-03-23T09:03:23;97169.31;;;19.95;44.64
19596;BME280;9945;46.010;8.946;2023-03-23T09:05:50;97167.03;;;19.92;44.22
19596;BME280;9945;46.010;8.946;2023-03-23T09:08:19;97169.31;;;19.82;44.60
19596;BME280;9945;46.010;8.946;2023-03-23T09:10:46;97162.50;;;20.13;42.79
19596;BME280;9945;46.010;8.946;2023-03-23T09:13:15;97164.16;;;20.07;43.62
19596;BME280;9945;46.010;8.946;2023-03-23T09:15:42;97161.97;;;19.78;44.52
19596;BME280;9945;46.010;8.946;2023-03-23T09:18:09;97166.53;;;20.28;42.96
19596;BME280;9945;46.010;8.946;2023-03-23T09:20:37;97158.88;;;19.94;43.13
19596;BME280;9945;46.010;8.946;2023-03-23T09:23:03;97160.53;;;19.36;43.47
19596;BME280;9945;46.010;8.946;2023-03-23T09:25:32;97150.53;;;19.44;43.30
19596;BME280;9945;46.010;8.946;2023-03-23T09:27:59;97155.63;;;19.79;44.02
19596;BME280;9945;46.010;8.946;2023-03-23T09:30:28;97150.53;;;20.42;42.22
19596;BME280;9945;46.010;8.946;2023-03-23T09:32:56;97160.75;;;20.89;40.86
19596;BME280;9945;46.010;8.946;2023-03-23T09:35:26;97160.78;;;21.14;40.15
19596;BME280;9945;46.010;8.946;2023-03-23T09:37:54;97150.09;;;21.52;38.98
19596;BME280;9945;46.010;8.946;2023-03-23T09:40:24;97150.06;;;21.77;39.09
19596;BME280;9945;46.010;8.946;2023-03-23T09:43:16;97152.06;;;23.02;36.69
19596;BME280;9945;46.010;8.946;2023-03-23T09:45:53;97153.00;;;23.73;35.02
19596;BME280;9945;46.010;8.946;2023-03-23T09:48:38;97150.19;;;24.95;34.01
19596;BME280;9945;46.010;8.946;2023-03-23T09:51:19;97153.22;;;26.20;30.76
19596;BME280;9945;46.010;8.946;2023-03-23T09:53:50;97150.41;;;26.70;30.43
19596;BME280;9945;46.010;8.946;2023-03-23T09:56:19;97150.97;;;26.51;30.35
19596;BME280;9945;46.010;8.946;2023-03-23T09:58:53;97141.97;;;26.40;30.48
19596;BME280;9945;46.010;8.946;2023-03-23T10:01:25;97148.34;;;26.56;30.45
19596;BME280;9945;46.010;8.946;2023-03-23T10:03:59;97153.84;;;27.46;29.21
19596;BME280;9945;46.010;8.946;2023-03-23T10:06:28;97142.97;;;28.68;28.29
19596;BME280;9945;46.010;8.946;2023-03-23T10:08:58;97145.84;;;29.44;27.33
19596;BME280;9945;46.010;8.946;2023-03-23T10:11:37;97149.31;;;29.09;27.50
19596;BME280;9945;46.010;8.946;2023-03-23T10:14:20;97153.66;;;29.96;26.93
19596;BME280;9945;46.010;8.946;2023-03-23T10:16:55;97152.84;;;29.70;27.56
19596;BME280;9945;46.010;8.946;2023-03-23T10:19:29;97145.66;;;30.60;26.22
19596;BME280;9945;46.010;8.946;2023-03-23T10:22:03;97153.94;;;29.54;26.33
19596;BME280;9945;46.010;8.946;2023-03-23T10:24:35;97154.44;;;29.15;26.39
19596;BME280;9945;46.010;8.946;2023-03-23T10:27:13;97153.09;;;28.35;28.63
19596;BME280;9945;46.010;8.946;2023-03-23T10:29:49;97150.91;;;28.94;27.70
19596;BME280;9945;46.010;8.946;2023-03-23T10:32:21;97144.09;;;30.29;25.54
19596;BME280;9945;46.010;8.946;2023-03-23T10:34:52;97146.66;;;30.74;25.47
19596;BME280;9945;46.010;8.946;2023-03-23T10:37:23;97134.97;;;30.20;25.37
19596;BME280;9945;46.010;8.946;2023-03-23T10:39:53;97125.91;;;28.42;27.43
19596;BME280;9945;46.010;8.946;2023-03-23T10:42:25;97128.78;;;29.03;26.00
19596;BME280;9945;46.010;8.946;2023-03-23T10:44:56;97127.44;;;29.91;25.79
19596;BME280;9945;46.010;8.946;2023-03-23T10:47:24;97132.59;;;29.93;25.13
19596;BME280;9945;46.010;8.946;2023-03-23T10:49:54;97125.06;;;29.75;24.70
19596;BME280;9945;46.010;8.946;2023-03-23T10:52:29;97120.66;;;28.77;25.84
19596;BME280;9945;46.010;8.946;2023-03-23T10:55:00;97112.75;;;28.50;25.96
19596;BME280;9945;46.010;8.946;2023-03-23T10:57:30;97112.66;;;29.38;25.68
19596;BME280;9945;46.010;8.946;2023-03-23T11:00:03;97107.31;;;31.94;22.82
19596;BME280;9945;46.010;8.946;2023-03-23T11:02:35;97108.94;;;34.56;20.37
19596;BME280;9945;46.010;8.946;2023-03-23T11:05:06;97108.09;;;36.73;18.60
19596;BME280;9945;46.010;8.946;2023-03-23T11:07:38;97109.75;;;38.37;17.30
19596;BME280;9945;46.010;8.946;2023-03-23T11:10:16;97102.97;;;39.34;15.59
19596;BME280;9945;46.010;8.946;2023-03-23T11:12:44;97109.94;;;40.59;14.96
19596;BME280;9945;46.010;8.946;2023-03-23T11:15:28;97103.72;;;41.66;13.81
19596;BME280;9945;46.010;8.946;2023-03-23T11:18:00;97090.34;;;42.43;13.75
19596;BME280;9945;46.010;8.946;2023-03-23T11:20:29;97097.44;;;42.95;12.87
19596;BME280;9945;46.010;8.946;2023-03-23T11:22:57;97088.06;;;43.57;12.54
19596;BME280;9945;46.010;8.946;2023-03-23T11:25:23;97089.66;;;43.58;12.33
19596;BME280;9945;46.010;8.946;2023-03-23T11:27:52;97101.72;;;43.92;12.55
19596;BME280;9945;46.010;8.946;2023-03-23T11:30:24;97098.28;;;44.44;11.79
19596;BME280;9945;46.010;8.946;2023-03-23T11:32:54;97090.72;;;44.68;11.78
19596;BME280;9945;46.010;8.946;2023-03-23T11:35:25;97092.06;;;44.51;11.56
19596;BME280;9945;46.010;8.946;2023-03-23T11:37:53;97082.16;;;44.24;11.88
19596;BME280;9945;46.010;8.946;2023-03-23T11:40:22;97082.28;;;44.57;11.55
19596;BME280;9945;46.010;8.946;2023-03-23T11:42:58;97079.34;;;43.97;11.78
19596;BME280;9945;46.010;8.946;2023-03-23T11:45:31;97076.13;;;44.18;12.08
19596;BME280;9945;46.010;8.946;2023-03-23T11:48:07;97078.81;;;44.90;11.75
19596;BME280;9945;46.010;8.946;2023-03-23T11:50:47;97079.56;;;44.87;11.64
19596;BME280;9945;46.010;8.946;2023-03-23T11:53:25;97075.31;;;44.18;11.76
19596;BME280;9945;46.010;8.946;2023-03-23T11:56:00;97068.47;;;43.85;12.07
19596;BME280;9945;46.010;8.946;2023-03-23T11:58:28;97074.91;;;44.38;11.73
19596;BME280;9945;46.010;8.946;2023-03-23T12:01:05;97071.03;;;44.20;12.00
19596;BME280;9945;46.010;8.946;2023-03-23T12:06:38;97076.59;;;42.97;12.30
19596;BME280;9945;46.010;8.946;2023-03-23T12:09:19;97071.88;;;43.56;12.12
19596;BME280;9945;46.010;8.946;2023-03-23T12:11:58;97069.94;;;43.37;12.24
19596;BME280;9945;46.010;8.946;2023-03-23T12:14:36;97061.69;;;43.18;12.52
19596;BME280;9945;46.010;8.946;2023-03-23T12:17:16;97062.97;;;43.24;12.35
19596;BME280;9945;46.010;8.946;2023-03-23T12:19:52;97050.03;;;42.54;12.94
19596;BME280;9945;46.010;8.946;2023-03-23T12:22:32;97051.06;;;42.30;12.81
19596;BME280;9945;46.010;8.946;2023-03-23T12:25:16;97055.53;;;42.19;13.04
19596;BME280;9945;46.010;8.946;2023-03-23T12:27:49;97038.63;;;41.14;13.75
19596;BME280;9945;46.010;8.946;2023-03-23T12:30:28;97033.97;;;41.46;13.59
19596;BME280;9945;46.010;8.946;2023-03-23T12:33:08;97031.47;;;40.98;14.00
19596;BME280;9945;46.010;8.946;2023-03-23T12:35:47;97040.97;;;40.12;14.39
19596;BME280;9945;46.010;8.946;2023-03-23T12:38:30;97013.84;;;40.87;14.40
19596;BME280;9945;46.010;8.946;2023-03-23T12:41:15;97020.59;;;41.61;13.35
19596;BME280;9945;46.010;8.946;2023-03-23T12:43:49;97025.03;;;42.79;13.00
19596;BME280;9945;46.010;8.946;2023-03-23T12:46:38;97003.88;;;40.42;14.17
19596;BME280;9945;46.010;8.946;2023-03-23T12:49:13;97014.84;;;39.24;15.25
19596;BME280;9945;46.010;8.946;2023-03-23T12:51:49;97008.03;;;39.99;15.08
19596;BME280;9945;46.010;8.946;2023-03-23T12:54:23;97001.00;;;39.65;14.89
19596;BME280;9945;46.010;8.946;2023-03-23T12:56:55;96994.56;;;40.99;14.13
19596;BME280;9945;46.010;8.946;2023-03-23T12:59:28;96992.56;;;41.86;13.66
19596;BME280;9945;46.010;8.946;2023-03-23T13:02:01;96997.53;;;41.81;13.45
19596;BME280;9945;46.010;8.946;2023-03-23T13:04:36;96986.31;;;40.71;14.20
19596;BME280;9945;46.010;8.946;2023-03-23T13:07:06;96978.69;;;41.36;13.92
19596;BME280;9945;46.010;8.946;2023-03-23T13:09:43;96978.63;;;41.04;14.20
19596;BME280;9945;46.010;8.946;2023-03-23T13:12:13;96974.66;;;41.17;14.50
19596;BME280;9945;46.010;8.946;2023-03-23T13:14:47;96977.41;;;41.17;14.36
19596;BME280;9945;46.010;8.946;2023-03-23T13:17:25;96992.50;;;40.68;14.58
19596;BME280;9945;46.010;8.946;2023-03-23T13:20:18;96969.84;;;40.59;14.51
19596;BME280;9945;46.010;8.946;2023-03-23T13:22:50;96978.66;;;40.92;14.44
19596;BME280;9945;46.010;8.946;2023-03-23T13:25:28;96975.88;;;40.36;14.76
19596;BME280;9945;46.010;8.946;2023-03-23T13:27:58;96983.38;;;38.76;15.96
19596;BME280;9945;46.010;8.946;2023-03-23T13:30:27;96985.13;;;37.80;16.90
19596;BME280;9945;46.010;8.946;2023-03-23T13:33:02;96973.00;;;35.40;18.79